Time;durP1;ratioP1;P1;durP2;ratioP2;P2;SDS_P1;SDS_P2;PMS_P1;PMS_P2;Temp;Humidity;BMP_temperature;BMP_pressure;BME280_temperature;BME280_humidity;BME280_pressure;Samples;Min_cycle;Max_cycle;Signal;HPM_P1;HPM_P2
2022/08/16 00:02:30;;;;;;;5.93;3.53;;;25.10;48.90;;;;;;6010803;29;20056;-74
2022/08/16 00:05:31;;;;;;;5.50;3.35;;;25.10;49.10;;;;;;6010977;29;20098;-75
2022/08/16 00:08:32;;;;;;;7.82;3.70;;;25.10;49.20;;;;;;6010162;29;20761;-74
2022/08/16 00:11:34;;;;;;;6.88;3.05;;;25.10;49.30;;;;;;6009834;29;20082;-74
2022/08/16 00:14:35;;;;;;;8.38;3.38;;;25.10;49.40;;;;;;5995654;29;20042;-74
2022/08/16 00:17:35;;;;;;;8.77;3.60;;;25.00;49.50;;;;;;6002345;29;20041;-74
2022/08/16 00:20:39;;;;;;;9.50;3.75;;;25.00;49.60;;;;;;5993592;29;20045;-74
2022/08/16 00:23:40;;;;;;;6.35;3.60;;;24.90;49.70;;;;;;6010297;29;20664;-74
2022/08/16 00:26:42;;;;;;;6.93;3.95;;;24.90;49.80;;;;;;5994433;29;20050;-74
2022/08/16 00:29:43;;;;;;;9.25;3.85;;;24.90;49.90;;;;;;5977293;29;20042;-74
2022/08/16 00:32:46;;;;;;;7.03;3.55;;;24.90;49.80;;;;;;5994580;29;20045;-74
2022/08/16 00:35:47;;;;;;;8.65;3.55;;;24.90;49.80;;;;;;5988433;29;20065;-75
2022/08/16 00:38:48;;;;;;;8.10;3.42;;;24.90;49.80;;;;;;6000788;29;20476;-74
2022/08/16 00:41:49;;;;;;;7.20;3.70;;;24.90;49.90;;;;;;5994570;29;20468;-74
2022/08/16 00:44:54;;;;;;;4.38;3.10;;;24.90;49.90;;;;;;5993452;29;20376;-74
2022/08/16 00:47:55;;;;;;;7.00;3.30;;;24.80;49.90;;;;;;6010044;29;20631;-74
2022/08/16 00:50:56;;;;;;;8.60;3.53;;;24.90;49.90;;;;;;5994455;29;20073;-74
2022/08/16 00:53:57;;;;;;;6.60;3.72;;;24.90;49.80;;;;;;6002679;29;20054;-75
2022/08/16 00:57:03;;;;;;;8.38;3.47;;;25.00;49.80;;;;;;6009500;29;20041;-73
2022/08/16 01:00:07;;;;;;;5.38;3.83;;;25.00;49.70;;;;;;5993911;29;20042;-76
2022/08/16 01:03:11;;;;;;;7.63;3.30;;;25.00;49.60;;;;;;5994467;29;20061;-74
2022/08/16 01:06:13;;;;;;;12.98;3.80;;;25.00;49.70;;;;;;6010030;29;20034;-74
2022/08/16 01:09:16;;;;;;;8.88;3.70;;;25.00;49.90;;;;;;5990921;29;20046;-73
2022/08/16 01:12:19;;;;;;;7.57;3.40;;;24.90;50.00;;;;;;6010391;29;20038;-74
2022/08/16 01:15:22;;;;;;;10.75;3.70;;;24.90;50.20;;;;;;5993365;29;20073;-75
2022/08/16 01:18:30;;;;;;;4.93;3.60;;;24.80;50.30;;;;;;5993345;29;20049;-73
2022/08/16 01:21:56;;;;;;;12.43;3.70;;;24.80;50.40;;;;;;5985515;29;20555;-73
2022/08/16 01:25:20;;;;;;;5.15;3.53;;;24.70;50.70;;;;;;6010126;29;20038;-74
2022/08/16 01:28:24;;;;;;;5.78;3.80;;;24.70;50.90;;;;;;6004379;29;20110;-74
2022/08/16 01:31:26;;;;;;;7.80;3.67;;;24.60;51.10;;;;;;5992571;29;20041;-74
2022/08/16 01:34:27;;;;;;;5.97;3.78;;;24.50;51.30;;;;;;5991399;29;20129;-74
2022/08/16 01:37:40;;;;;;;5.30;3.90;;;24.50;51.40;;;;;;5992387;29;20042;-74
2022/08/16 01:40:41;;;;;;;6.63;3.70;;;24.30;51.50;;;;;;6009827;29;20038;-74
2022/08/16 01:43:44;;;;;;;8.27;3.85;;;24.30;51.60;;;;;;5998713;29;20049;-74
2022/08/16 01:46:47;;;;;;;5.32;3.80;;;24.30;51.70;;;;;;5997479;29;20073;-74
2022/08/16 01:49:51;;;;;;;7.88;4.13;;;24.20;51.80;;;;;;6022493;29;20499;-74
2022/08/16 01:52:53;;;;;;;7.18;3.97;;;24.20;51.80;;;;;;6009717;29;20129;-73
2022/08/16 01:56:08;;;;;;;10.70;4.20;;;24.20;51.80;;;;;;5996407;29;20125;-74
2022/08/16 01:59:13;;;;;;;10.10;4.18;;;24.10;51.90;;;;;;6006438;29;20038;-74
2022/08/16 02:02:14;;;;;;;6.10;4.00;;;24.10;52.00;;;;;;6021425;29;20057;-74
2022/08/16 02:05:15;;;;;;;7.55;4.00;;;24.00;52.00;;;;;;6010456;29;20069;-74
2022/08/16 02:08:16;;;;;;;8.77;4.07;;;24.10;52.20;;;;;;5993183;29;20393;-74
2022/08/16 02:11:17;;;;;;;6.05;3.72;;;24.10;52.30;;;;;;6008475;29;20466;-74
2022/08/16 02:14:19;;;;;;;5.72;3.53;;;24.00;52.40;;;;;;6008363;29;20052;-74
2022/08/16 02:17:20;;;;;;;6.22;3.92;;;24.00;52.50;;;;;;6008415;29;20034;-73
2022/08/16 02:20:22;;;;;;;5.30;3.63;;;24.00;52.70;;;;;;6007810;29;20049;-74
2022/08/16 02:23:23;;;;;;;10.07;3.78;;;23.90;52.90;;;;;;6008928;29;20038;-75
2022/08/16 02:26:25;;;;;;;4.63;3.65;;;23.90;53.00;;;;;;6007847;29;20432;-74
2022/08/16 02:29:26;;;;;;;5.78;3.95;;;23.90;52.90;;;;;;6008615;29;20468;-74
2022/08/16 02:32:27;;;;;;;5.55;3.55;;;23.90;52.80;;;;;;6008750;29;20034;-74
2022/08/16 02:35:28;;;;;;;5.68;3.75;;;23.90;52.70;;;;;;5993416;29;20578;-74
2022/08/16 02:38:29;;;;;;;7.90;3.92;;;24.00;52.80;;;;;;6006437;29;20045;-75
2022/08/16 02:41:30;;;;;;;7.20;4.40;;;23.90;52.80;;;;;;6009099;29;20053;-74
2022/08/16 02:44:31;;;;;;;5.75;3.78;;;23.90;52.90;;;;;;5991247;29;20065;-74
2022/08/16 02:47:33;;;;;;;9.20;3.63;;;23.90;52.90;;;;;;5993016;29;20152;-74
2022/08/16 02:50:34;;;;;;;15.38;4.38;;;23.90;52.80;;;;;;6005801;29;20038;-74
2022/08/16 02:53:38;;;;;;;8.23;4.10;;;24.00;52.80;;;;;;5993021;29;20038;-74
2022/08/16 02:56:39;;;;;;;6.43;3.80;;;24.00;52.70;;;;;;6006413;29;20057;-74
2022/08/16 02:59:42;;;;;;;5.82;3.75;;;23.90;52.70;;;;;;6002981;29;20053;-74
2022/08/16 03:02:44;;;;;;;5.78;3.78;;;23.90;52.70;;;;;;6011501;29;20048;-74
2022/08/16 03:05:46;;;;;;;8.10;3.50;;;24.00;52.70;;;;;;6007459;29;20048;-74
2022/08/16 03:08:49;;;;;;;6.78;3.97;;;24.00;52.70;;;;;;6007137;29;20037;-75
2022/08/16 03:11:50;;;;;;;6.05;3.65;;;23.90;52.60;;;;;;6004943;29;20045;-73
2022/08/16 03:14:52;;;;;;;5.82;3.78;;;23.90;52.60;;;;;;6007699;29;20061;-74
2022/08/16 03:17:55;;;;;;;6.82;3.53;;;23.90;52.70;;;;;;6020313;29;20042;-75
2022/08/16 03:20:59;;;;;;;7.28;4.07;;;23.90;52.80;;;;;;6007342;29;20041;-74
2022/08/16 03:24:01;;;;;;;12.27;4.60;;;23.80;53.00;;;;;;6007926;29;20053;-75
2022/08/16 03:27:03;;;;;;;7.15;4.40;;;23.70;53.10;;;;;;6001149;29;20468;-74
2022/08/16 03:30:11;;;;;;;9.00;3.50;;;23.70;53.30;;;;;;6021074;29;20068;-74
2022/08/16 03:33:12;;;;;;;10.07;4.05;;;23.60;53.30;;;;;;6005256;29;20038;-74
2022/08/16 03:36:20;;;;;;;5.90;4.07;;;23.60;53.30;;;;;;5993116;29;20052;-74
2022/08/16 03:39:26;;;;;;;4.75;3.75;;;23.60;53.40;;;;;;6007134;29;20117;-74
2022/08/16 03:42:27;;;;;;;6.90;3.75;;;23.60;53.60;;;;;;6000274;29;20081;-74
2022/08/16 03:45:28;;;;;;;7.15;4.03;;;23.60;53.70;;;;;;6007917;29;20056;-75
2022/08/16 03:48:32;;;;;;;8.10;4.03;;;23.60;53.70;;;;;;5991356;29;20073;-74
2022/08/16 03:51:34;;;;;;;7.68;3.90;;;23.70;53.60;;;;;;5994331;29;20100;-75
2022/08/16 03:54:39;;;;;;;6.70;4.18;;;23.70;53.60;;;;;;5997816;29;20087;-75
2022/08/16 03:57:40;;;;;;;8.10;4.20;;;23.70;53.60;;;;;;6007065;29;20038;-74
2022/08/16 04:00:44;;;;;;;10.13;4.07;;;23.70;53.70;;;;;;5991569;29;20125;-74
2022/08/16 04:03:50;;;;;;;10.30;4.30;;;23.60;53.80;;;;;;5991814;29;20050;-74
2022/08/16 04:06:51;;;;;;;6.53;4.07;;;23.60;53.90;;;;;;5980302;29;20053;-75
2022/08/16 04:09:52;;;;;;;7.90;4.57;;;23.60;54.10;;;;;;5993598;29;20041;-75
2022/08/16 04:12:53;;;;;;;10.73;4.30;;;23.60;54.20;;;;;;5995915;29;20432;-74
2022/08/16 04:15:58;;;;;;;9.15;4.40;;;23.50;54.00;;;;;;5991832;29;20121;-75
2022/08/16 04:18:59;;;;;;;8.52;4.32;;;23.50;53.80;;;;;;6012046;29;20042;-73
2022/08/16 04:22:00;;;;;;;6.63;4.28;;;23.40;53.70;;;;;;6011127;29;20038;-75
2022/08/16 04:25:05;;;;;;;9.63;4.30;;;23.40;53.70;;;;;;5992646;29;20073;-75
2022/08/16 04:28:10;;;;;;;8.75;4.45;;;23.40;53.70;;;;;;5996895;29;20054;-75
2022/08/16 04:31:11;;;;;;;6.38;4.18;;;23.40;53.80;;;;;;6006674;29;20105;-74
2022/08/16 04:34:15;;;;;;;7.22;4.47;;;23.40;53.90;;;;;;5998347;29;20067;-74
2022/08/16 04:37:19;;;;;;;6.82;4.25;;;23.40;54.00;;;;;;5996792;29;20053;-74
2022/08/16 04:40:27;;;;;;;6.47;4.22;;;23.40;54.10;;;;;;5999572;29;20042;-75
2022/08/16 04:43:29;;;;;;;6.07;4.07;;;23.40;54.10;;;;;;5992870;29;20045;-74
2022/08/16 04:46:32;;;;;;;9.75;4.38;;;23.40;54.20;;;;;;5998286;29;20049;-73
2022/08/16 04:49:34;;;;;;;8.15;4.40;;;23.30;54.30;;;;;;6003680;29;20038;-75
2022/08/16 04:52:36;;;;;;;5.97;4.05;;;23.40;54.50;;;;;;6008671;29;20030;-74
2022/08/16 04:55:38;;;;;;;9.05;4.70;;;23.30;54.50;;;;;;6009856;29;20372;-74
2022/08/16 04:58:39;;;;;;;10.23;4.63;;;23.30;54.50;;;;;;6009724;29;20062;-74
2022/08/16 05:01:41;;;;;;;5.80;3.97;;;23.30;54.60;;;;;;6010278;29;20625;-73
2022/08/16 05:04:42;;;;;;;7.68;4.35;;;23.20;54.60;;;;;;6011195;29;20037;-75
2022/08/16 05:07:43;;;;;;;9.77;4.55;;;23.20;54.80;;;;;;5994349;29;20034;-74
2022/08/16 05:10:44;;;;;;;6.43;4.32;;;23.20;54.80;;;;;;6008776;29;20456;-75
2022/08/16 05:13:47;;;;;;;8.15;4.53;;;23.30;55.10;;;;;;6011558;29;20065;-75
2022/08/16 05:16:54;;;;;;;7.25;4.25;;;23.50;54.80;;;;;;6012022;29;20042;-75
2022/08/16 05:19:56;;;;;;;6.68;4.03;;;23.70;54.10;;;;;;6008989;29;20102;-74
2022/08/16 05:22:57;;;;;;;5.75;4.22;;;23.70;53.80;;;;;;6009088;29;20128;-75
2022/08/16 05:25:59;;;;;;;10.75;4.80;;;23.60;53.80;;;;;;5993822;29;20489;-75
2022/08/16 05:29:00;;;;;;;12.80;4.57;;;23.50;53.80;;;;;;6010249;29;20049;-74
2022/08/16 05:32:02;;;;;;;6.57;4.20;;;23.50;54.10;;;;;;6006633;29;20372;-74
2022/08/16 05:35:06;;;;;;;10.52;4.22;;;23.40;54.40;;;;;;6005665;29;20130;-74
2022/08/16 05:38:08;;;;;;;7.93;4.13;;;23.30;54.40;;;;;;6009574;29;20038;-73
2022/08/16 05:41:10;;;;;;;6.07;3.67;;;23.30;54.40;;;;;;5993098;29;20133;-75
2022/08/16 05:44:16;;;;;;;9.25;4.55;;;23.40;54.50;;;;;;6008927;29;20049;-74
2022/08/16 05:47:17;;;;;;;5.97;3.97;;;23.40;55.00;;;;;;5991619;29;20069;-75
2022/08/16 05:50:20;;;;;;;7.80;4.22;;;23.40;54.40;;;;;;6008870;29;20987;-75
2022/08/16 05:53:23;;;;;;;7.53;4.00;;;23.40;54.30;;;;;;6011070;29;20046;-75
2022/08/16 05:56:40;;;;;;;13.80;3.83;;;23.30;54.20;;;;;;6008753;29;20045;-75
2022/08/16 05:59:41;;;;;;;7.57;4.22;;;23.30;54.20;;;;;;6022903;29;20516;-74
2022/08/16 06:02:42;;;;;;;15.50;4.28;;;23.20;54.20;;;;;;6007692;29;20074;-73
2022/08/16 06:06:16;;;;;;;12.30;4.60;;;23.20;54.40;;;;;;5977470;29;20381;-73
2022/08/16 06:09:17;;;;;;;7.57;4.22;;;23.20;54.40;;;;;;5972686;29;20038;-73
2022/08/16 06:12:18;;;;;;;6.65;4.03;;;23.30;54.50;;;;;;5974335;29;20129;-74
2022/08/16 06:15:20;;;;;;;6.97;4.15;;;23.30;54.50;;;;;;5967012;29;20042;-74
2022/08/16 06:18:21;;;;;;;8.15;4.50;;;23.30;54.50;;;;;;5984880;29;20042;-74
2022/08/16 06:21:23;;;;;;;11.45;4.22;;;23.30;54.40;;;;;;5969129;29;20377;-74
2022/08/16 06:24:25;;;;;;;6.28;4.20;;;23.40;54.30;;;;;;5967736;29;20183;-74
2022/08/16 06:27:26;;;;;;;7.32;4.35;;;23.40;54.30;;;;;;5989197;29;20421;-74
2022/08/16 06:30:27;;;;;;;15.48;4.80;;;23.50;54.30;;;;;;5988487;29;20038;-74
2022/08/16 06:33:29;;;;;;;10.48;4.07;;;23.40;54.20;;;;;;5973697;29;20121;-74
2022/08/16 06:36:29;;;;;;;7.78;4.70;;;23.50;54.30;;;;;;5978429;29;20038;-74
2022/08/16 06:39:46;;;;;;;14.48;4.03;;;23.50;54.30;;;;;;5973125;29;20043;-74
2022/08/16 06:42:56;;;;;;;15.32;4.07;;;23.50;54.30;;;;;;6003102;29;20070;-75
2022/08/16 06:46:28;;;;;;;9.93;4.28;;;23.60;54.10;;;;;;6009439;29;20132;-75
2022/08/16 06:49:29;;;;;;;7.47;4.28;;;23.70;54.00;;;;;;5975432;29;20061;-74
2022/08/16 06:52:33;;;;;;;5.50;3.60;;;23.80;53.70;;;;;;5989890;29;21893;-74
2022/08/16 06:55:35;;;;;;;6.47;3.75;;;23.90;53.50;;;;;;5988012;29;20121;-74
2022/08/16 06:58:40;;;;;;;8.63;3.75;;;24.00;53.30;;;;;;5973755;29;20154;-75
2022/08/16 07:01:45;;;;;;;7.00;3.90;;;24.10;52.90;;;;;;5967228;29;20070;-74
2022/08/16 07:04:46;;;;;;;7.60;4.68;;;24.20;52.70;;;;;;5980071;29;20087;-74
2022/08/16 07:07:53;;;;;;;7.72;3.83;;;24.20;52.50;;;;;;5985956;29;20057;-74
2022/08/16 07:10:54;;;;;;;6.90;3.80;;;24.30;52.30;;;;;;5979496;29;20045;-74
2022/08/16 07:13:55;;;;;;;6.38;3.97;;;24.50;52.10;;;;;;5965655;29;20061;-74
2022/08/16 07:16:59;;;;;;;8.30;3.83;;;24.60;51.70;;;;;;5965960;29;20357;-74
2022/08/16 07:20:01;;;;;;;7.25;4.22;;;24.70;51.50;;;;;;5980381;29;20064;-74
2022/08/16 07:23:09;;;;;;;6.45;4.57;;;24.80;51.40;;;;;;5982598;29;20098;-74
2022/08/16 07:26:22;;;;;;;7.10;4.15;;;24.90;51.00;;;;;;5983422;29;20057;-75
2022/08/16 07:29:25;;;;;;;7.93;4.55;;;25.00;50.70;;;;;;5986952;29;20042;-75
2022/08/16 07:32:27;;;;;;;6.13;4.22;;;25.10;50.50;;;;;;5992204;29;20034;-75
2022/08/16 07:35:27;;;;;;;11.18;4.18;;;25.30;50.30;;;;;;5989361;29;20052;-75
2022/08/16 07:38:29;;;;;;;6.05;4.03;;;25.30;49.90;;;;;;5989172;29;20041;-74
2022/08/16 07:41:31;;;;;;;7.65;3.95;;;25.40;49.80;;;;;;5985244;29;20038;-74
2022/08/16 07:44:35;;;;;;;7.85;4.10;;;25.50;49.80;;;;;;5991063;29;20045;-75
2022/08/16 07:47:36;;;;;;;9.50;4.15;;;25.60;49.60;;;;;;6002942;29;20042;-75
2022/08/16 07:50:37;;;;;;;6.32;4.07;;;25.70;49.20;;;;;;6008903;29;20362;-76
2022/08/16 07:53:38;;;;;;;10.02;5.15;;;25.90;49.00;;;;;;6009765;29;20048;-75
2022/08/16 07:56:39;;;;;;;6.63;4.10;;;26.00;48.60;;;;;;6015654;29;20038;-76
2022/08/16 07:59:43;;;;;;;8.63;4.00;;;26.20;48.30;;;;;;6011854;29;20356;-73
2022/08/16 08:02:46;;;;;;;6.13;3.90;;;26.30;47.80;;;;;;6009381;29;20042;-73
2022/08/16 08:05:53;;;;;;;9.88;4.00;;;26.50;47.50;;;;;;6004802;29;20117;-73
2022/08/16 08:08:55;;;;;;;8.20;4.63;;;26.50;47.20;;;;;;6005795;29;20042;-73
2022/08/16 08:11:57;;;;;;;8.25;4.80;;;26.60;47.30;;;;;;6008860;29;20053;-71
2022/08/16 08:14:58;;;;;;;9.70;4.43;;;26.70;47.20;;;;;;6004913;29;20034;-72
2022/08/16 08:18:01;;;;;;;6.38;3.80;;;26.90;47.00;;;;;;6002267;29;20061;-72
2022/08/16 08:21:08;;;;;;;6.32;4.00;;;27.00;46.40;;;;;;6002725;29;20046;-73
2022/08/16 08:24:13;;;;;;;8.55;4.22;;;27.20;46.00;;;;;;6008123;29;20133;-73
2022/08/16 08:27:15;;;;;;;12.30;4.15;;;27.30;45.80;;;;;;6003412;29;20038;-72
2022/08/16 08:30:17;;;;;;;8.77;3.28;;;27.50;45.50;;;;;;6019191;29;20046;-72
2022/08/16 08:33:19;;;;;;;9.75;4.00;;;27.70;45.10;;;;;;6022761;29;20128;-72
2022/08/16 08:36:27;;;;;;;7.32;3.72;;;27.80;44.60;;;;;;6012115;29;20076;-73
2022/08/16 08:39:29;;;;;;;;;;;28.00;43.80;;;;;;6008732;29;20050;-74
2022/08/16 08:42:30;;;;;;;8.73;3.75;;;28.10;43.40;;;;;;6010604;29;19996;-73
2022/08/16 08:45:31;;;;;;;7.20;3.47;;;28.10;43.30;;;;;;6014416;29;20120;-72
2022/08/16 08:48:35;;;;;;;9.57;3.78;;;28.20;43.10;;;;;;5976964;29;20181;-72
2022/08/16 08:51:37;;;;;;;4.75;3.42;;;28.20;42.70;;;;;;5977310;29;20045;-73
2022/08/16 08:54:41;;;;;;;11.90;4.90;;;28.20;43.20;;;;;;5989283;29;20421;-74
2022/08/16 08:57:44;;;;;;;9.02;5.07;;;28.20;42.40;;;;;;5992615;29;20129;-72
2022/08/16 09:00:57;;;;;;;6.55;4.28;;;28.20;42.50;;;;;;5988527;29;20073;-72
2022/08/16 09:03:58;;;;;;;6.70;3.72;;;28.30;42.60;;;;;;5991857;29;20042;-73
2022/08/16 09:07:00;;;;;;;8.65;3.72;;;28.40;42.60;;;;;;5991655;29;20460;-72
2022/08/16 09:10:04;;;;;;;9.40;3.83;;;28.60;42.30;;;;;;5992012;29;20508;-74
2022/08/16 09:13:07;;;;;;;6.30;3.45;;;28.60;41.80;;;;;;5993160;29;20038;-73
2022/08/16 09:16:15;;;;;;;4.22;3.05;;;28.70;41.60;;;;;;5976268;29;20060;-73
2022/08/16 09:19:17;;;;;;;9.40;3.47;;;28.70;41.70;;;;;;5992625;29;20034;-73
2022/08/16 09:22:20;;;;;;;13.60;4.47;;;28.70;41.60;;;;;;6008293;29;20042;-73
2022/08/16 09:25:22;;;;;;;14.68;5.82;;;28.70;41.60;;;;;;5992806;29;20129;-73
2022/08/16 09:28:23;;;;;;;11.65;7.15;;;28.80;41.60;;;;;;6007283;29;20037;-74
2022/08/16 09:31:32;;;;;;;9.85;4.55;;;28.90;41.60;;;;;;5982479;29;20042;-73
2022/08/16 09:34:33;;;;;;;10.27;4.28;;;29.00;41.40;;;;;;6006297;29;20034;-72
2022/08/16 09:37:34;;;;;;;7.88;4.15;;;29.10;41.00;;;;;;6008685;29;20060;-72
2022/08/16 09:40:36;;;;;;;9.32;3.80;;;29.20;41.00;;;;;;6008588;29;20108;-72
2022/08/16 09:43:38;;;;;;;9.80;4.20;;;29.30;41.00;;;;;;6009113;29;20041;-73
2022/08/16 09:46:38;;;;;;;12.07;3.90;;;29.30;40.80;;;;;;5990342;29;20042;-73
2022/08/16 09:49:40;;;;;;;9.18;3.60;;;29.50;40.60;;;;;;6007313;29;20048;-73
2022/08/16 09:52:41;;;;;;;9.82;4.00;;;29.60;40.30;;;;;;6010195;29;20038;-72
2022/08/16 09:55:46;;;;;;;11.60;5.18;;;29.70;40.10;;;;;;6007776;29;20038;-72
2022/08/16 09:58:47;;;;;;;10.63;4.43;;;29.90;39.90;;;;;;6022927;29;20056;-72
2022/08/16 10:01:49;;;;;;;8.43;3.38;;;30.00;39.40;;;;;;6005200;29;20034;-72
2022/08/16 10:04:50;;;;;;;8.18;3.75;;;30.00;39.00;;;;;;6007277;29;20383;-74
2022/08/16 10:07:51;;;;;;;19.10;5.80;;;30.00;39.20;;;;;;6007382;29;20060;-73
2022/08/16 10:14:12;;;;;;;18.35;4.15;;;30.20;38.90;;;;;;6006996;29;20042;-72
2022/08/16 10:17:13;;;;;;;8.13;3.80;;;30.30;38.60;;;;;;6005761;29;20030;-74
2022/08/16 10:20:14;;;;;;;8.30;4.05;;;30.40;38.40;;;;;;6007052;29;20034;-72
2022/08/16 10:23:15;;;;;;;10.98;4.78;;;30.50;38.30;;;;;;6005299;29;20054;-72
2022/08/16 10:26:17;;;;;;;7.95;4.05;;;30.60;38.10;;;;;;6005744;29;20529;-73
2022/08/16 10:29:18;;;;;;;6.15;3.17;;;30.60;37.60;;;;;;6006724;29;20030;-73
2022/08/16 10:32:19;;;;;;;4.93;3.25;;;30.80;37.00;;;;;;5988635;29;20113;-73
2022/08/16 10:35:21;;;;;;;7.75;3.40;;;30.90;36.40;;;;;;6006634;29;20061;-74
2022/08/16 10:38:22;;;;;;;6.13;3.30;;;30.90;35.70;;;;;;6004352;29;20571;-72
2022/08/16 10:41:23;;;;;;;5.85;3.20;;;30.90;35.50;;;;;;6005460;29;20081;-73
2022/08/16 10:44:24;;;;;;;5.78;3.50;;;31.10;35.20;;;;;;6005631;29;20038;-73
2022/08/16 10:47:25;;;;;;;8.32;3.15;;;31.10;34.30;;;;;;6004658;29;20042;-74
2022/08/16 10:50:27;;;;;;;5.45;3.33;;;31.20;34.20;;;;;;6006130;29;20042;-75
2022/08/16 10:53:30;;;;;;;8.27;3.72;;;31.20;33.90;;;;;;5990596;29;20042;-72
2022/08/16 10:56:32;;;;;;;5.00;3.17;;;31.40;33.30;;;;;;5989438;29;20034;-73
2022/08/16 10:59:33;;;;;;;6.43;3.13;;;31.90;32.80;;;;;;6006358;29;20037;-73
2022/08/16 11:02:35;;;;;;;7.47;3.50;;;32.40;32.20;;;;;;5996695;29;20163;-74
2022/08/16 11:05:38;;;;;;;7.13;4.05;;;32.90;31.70;;;;;;5985799;29;20034;-74
2022/08/16 11:08:39;;;;;;;4.57;2.90;;;33.20;31.10;;;;;;6005829;29;20407;-74
2022/08/16 11:11:40;;;;;;;4.45;3.00;;;33.60;30.60;;;;;;5990408;29;20037;-74
2022/08/16 11:14:41;;;;;;;4.32;3.22;;;33.90;30.10;;;;;;6006627;29;20041;-73
2022/08/16 11:17:42;;;;;;;6.18;3.65;;;34.20;29.80;;;;;;6006176;29;20037;-74
2022/08/16 11:20:44;;;;;;;11.38;3.17;;;34.50;29.60;;;;;;5989591;29;20049;-75
2022/08/16 11:23:45;;;;;;;3.72;2.97;;;34.70;29.20;;;;;;6006782;29;20492;-73
2022/08/16 11:26:47;;;;;;;8.48;3.38;;;35.00;29.20;;;;;;6005423;29;20044;-74
2022/08/16 11:29:50;;;;;;;6.97;3.45;;;35.40;28.90;;;;;;5989160;29;20045;-74
2022/08/16 11:32:51;;;;;;;5.30;2.90;;;35.70;28.40;;;;;;5990633;29;20078;-74
2022/08/16 11:35:52;;;;;;;4.80;3.10;;;35.70;28.20;;;;;;6004902;29;21723;-75
2022/08/16 11:38:54;;;;;;;10.60;3.40;;;35.60;28.00;;;;;;5985931;29;20041;-73
2022/08/16 11:41:56;;;;;;;5.13;2.80;;;35.50;28.10;;;;;;5989524;29;20052;-74
2022/08/16 11:44:57;;;;;;;5.28;2.78;;;35.60;28.00;;;;;;5988982;29;20085;-74
2022/08/16 11:47:59;;;;;;;6.97;3.45;;;35.80;27.50;;;;;;6004351;29;20447;-74
2022/08/16 11:51:01;;;;;;;4.30;2.60;;;35.70;27.40;;;;;;6003975;29;20042;-74
2022/08/16 11:54:02;;;;;;;6.50;3.22;;;35.70;27.40;;;;;;6014452;29;20065;-74
2022/08/16 11:57:04;;;;;;;4.05;3.53;;;35.90;27.20;;;;;;6006015;29;20506;-74
2022/08/16 12:00:10;;;;;;;5.90;3.60;;;36.10;26.90;;;;;;6003114;29;20042;-73
2022/08/16 12:03:13;;;;;;;4.38;3.35;;;36.20;26.70;;;;;;6002270;29;20034;-73
2022/08/16 12:06:16;;;;;;;8.45;3.33;;;36.50;26.50;;;;;;6017218;29;20081;-73
2022/08/16 12:09:17;;;;;;;7.10;3.15;;;36.70;26.40;;;;;;6003695;29;20042;-74
2022/08/16 12:12:19;;;;;;;4.68;3.22;;;37.10;26.10;;;;;;6001878;29;20407;-73
2022/08/16 12:15:21;;;;;;;8.82;2.92;;;37.40;25.80;;;;;;6005038;29;20061;-73
2022/08/16 12:18:22;;;;;;;8.85;2.92;;;37.60;25.20;;;;;;5993496;29;20408;-73
2022/08/16 12:21:23;;;;;;;4.10;3.35;;;37.90;25.00;;;;;;6004149;29;20046;-74
2022/08/16 12:24:25;;;;;;;4.00;2.70;;;38.30;24.70;;;;;;6002249;29;20508;-74
2022/08/16 12:27:26;;;;;;;4.43;2.80;;;38.70;23.90;;;;;;6002993;29;20100;-75
2022/08/16 12:30:30;;;;;;;3.85;2.78;;;39.00;23.60;;;;;;6004945;29;20034;-74
2022/08/16 12:33:31;;;;;;;3.65;2.70;;;39.40;23.10;;;;;;6006680;29;20041;-74
2022/08/16 12:36:34;;;;;;;4.57;2.65;;;39.90;22.80;;;;;;6007276;29;20126;-74
2022/08/16 12:39:35;;;;;;;3.38;2.63;;;40.30;22.40;;;;;;6006137;29;20307;-74
2022/08/16 12:42:36;;;;;;;5.10;2.70;;;40.80;21.60;;;;;;6007300;29;20042;-73
2022/08/16 12:45:43;;;;;;;6.38;2.72;;;40.90;21.40;;;;;;6006062;29;20041;-73
2022/08/16 12:48:59;;;;;;;3.72;2.53;;;40.90;21.20;;;;;;6005686;29;20049;-74
2022/08/16 12:52:01;;;;;;;3.57;2.67;;;41.10;21.20;;;;;;6007141;29;20042;-74
2022/08/16 12:55:05;;;;;;;4.45;2.70;;;41.50;20.70;;;;;;6007299;29;20274;-74
2022/08/16 12:58:06;;;;;;;4.20;2.80;;;41.30;20.40;;;;;;5988400;29;20098;-74
2022/08/16 13:01:08;;;;;;;3.95;2.67;;;40.50;21.00;;;;;;5992635;29;20069;-74
2022/08/16 13:04:10;;;;;;;4.82;2.67;;;39.90;21.70;;;;;;6003177;29;20054;-74
2022/08/16 13:07:12;;;;;;;4.43;2.40;;;40.10;21.60;;;;;;6005045;29;20060;-74
2022/08/16 13:10:14;;;;;;;4.63;2.15;;;40.60;21.10;;;;;;5990224;29;20106;-74
2022/08/16 13:13:23;;;;;;;9.05;2.75;;;40.70;20.80;;;;;;6007473;29;20046;-75
2022/08/16 13:16:24;;;;;;;4.20;2.67;;;40.10;21.10;;;;;;5989549;29;20041;-73
2022/08/16 13:19:26;;;;;;;4.13;2.50;;;39.40;21.70;;;;;;6007784;29;20372;-73
2022/08/16 13:22:27;;;;;;;7.97;2.78;;;38.60;22.30;;;;;;6007184;29;20081;-75
2022/08/16 13:25:31;;;;;;;18.25;3.00;;;37.90;22.90;;;;;;5992699;29;20121;-77
2022/08/16 13:28:32;;;;;;;3.75;2.60;;;38.10;23.00;;;;;;6009087;29;20048;-75
2022/08/16 13:31:33;;;;;;;5.47;2.50;;;38.00;23.00;;;;;;5993081;29;20417;-73
2022/08/16 13:34:34;;;;;;;4.28;2.70;;;37.50;23.40;;;;;;5994954;29;20529;-77
2022/08/16 13:37:36;;;;;;;3.55;2.55;;;36.80;24.00;;;;;;5991652;29;20049;-76
2022/08/16 13:40:37;;;;;;;6.05;3.40;;;36.20;24.60;;;;;;5994198;29;20042;-77
2022/08/16 13:43:39;;;;;;;5.97;2.78;;;35.90;25.00;;;;;;5992151;29;20045;-76
2022/08/16 13:46:40;;;;;;;3.00;2.70;;;35.70;25.30;;;;;;6009175;29;20542;-79
2022/08/16 13:49:42;;;;;;;4.25;3.00;;;35.50;25.70;;;;;;5989936;29;20033;-79
2022/08/16 13:52:44;;;;;;;44.72;4.20;;;35.10;26.00;;;;;;5992880;29;20046;-77
2022/08/16 13:55:46;;;;;;;3.55;2.65;;;34.80;26.30;;;;;;6009277;29;20149;-78
2022/08/16 13:58:47;;;;;;;6.28;2.75;;;34.60;26.60;;;;;;5993146;29;20106;-81
2022/08/16 14:01:52;;;;;;;6.05;2.78;;;34.40;26.80;;;;;;5993745;29;20428;-82
2022/08/16 14:04:53;;;;;;;6.28;3.20;;;34.30;27.00;;;;;;5994240;29;20082;-78
2022/08/16 14:07:54;;;;;;;3.08;2.63;;;34.20;27.10;;;;;;6006838;29;20066;-78
2022/08/16 14:10:54;;;;;;;8.15;2.95;;;34.10;27.30;;;;;;5976148;29;20371;-75
2022/08/16 14:13:57;;;;;;;9.32;2.95;;;34.00;27.50;;;;;;6008332;29;20125;-77
2022/08/16 14:17:00;;;;;;;8.70;2.92;;;33.90;27.90;;;;;;6006935;29;20486;-76
2022/08/16 14:20:02;;;;;;;4.15;3.17;;;34.20;27.70;;;;;;6006172;29;20046;-78
2022/08/16 14:23:04;;;;;;;4.35;2.75;;;34.70;27.20;;;;;;6005684;29;20041;-72
2022/08/16 14:26:07;;;;;;;5.43;2.88;;;34.80;27.10;;;;;;5987233;29;20416;-77
2022/08/16 14:29:09;;;;;;;5.15;2.58;;;34.80;27.10;;;;;;5970727;29;20037;-78
2022/08/16 14:32:10;;;;;;;8.18;2.83;;;35.30;26.80;;;;;;5991113;29;20102;-73
2022/08/16 14:35:17;;;;;;;6.97;3.28;;;36.10;26.10;;;;;;6004564;29;20034;-73
2022/08/16 14:38:20;;;;;;;4.28;2.78;;;36.50;26.00;;;;;;6006611;29;20033;-74
2022/08/16 14:41:21;;;;;;;5.68;2.92;;;36.60;25.90;;;;;;6007723;29;20440;-73
2022/08/16 14:44:22;;;;;;;5.05;2.88;;;36.60;25.90;;;;;;6007590;29;20045;-75
2022/08/16 14:47:24;;;;;;;6.13;2.95;;;36.30;26.10;;;;;;6007765;29;20476;-74
2022/08/16 14:50:26;;;;;;;4.20;2.70;;;36.00;26.30;;;;;;6008593;29;20198;-74
2022/08/16 14:53:27;;;;;;;3.78;2.80;;;35.70;26.50;;;;;;6008189;29;20085;-74
2022/08/16 14:56:29;;;;;;;5.88;2.70;;;35.50;26.80;;;;;;6006669;29;20129;-75
2022/08/16 14:59:31;;;;;;;5.18;3.10;;;35.30;27.10;;;;;;5992590;29;20460;-75
2022/08/16 15:02:32;;;;;;;5.32;3.08;;;35.10;27.30;;;;;;5975172;29;20361;-75
2022/08/16 15:05:33;;;;;;;4.78;3.47;;;34.90;27.40;;;;;;5991895;29;20079;-75
2022/08/16 15:08:34;;;;;;;5.13;3.00;;;34.80;27.50;;;;;;5992410;29;20117;-75
2022/08/16 15:11:36;;;;;;;6.20;3.25;;;34.60;27.60;;;;;;6008322;29;20038;-74
2022/08/16 15:14:37;;;;;;;3.28;2.40;;;34.50;27.80;;;;;;6008264;29;20369;-75
2022/08/16 15:17:40;;;;;;;6.57;3.08;;;34.30;28.00;;;;;;5974258;29;20042;-75
2022/08/16 15:20:43;;;;;;;6.10;3.10;;;34.10;28.30;;;;;;5976283;29;20369;-74
2022/08/16 15:23:43;;;;;;;3.90;2.97;;;34.00;28.60;;;;;;5990876;29;20050;-74
2022/08/16 15:26:45;;;;;;;5.07;3.17;;;33.90;28.80;;;;;;6007137;29;20094;-74
2022/08/16 15:29:45;;;;;;;5.65;2.78;;;33.90;29.00;;;;;;5991464;29;21398;-73
2022/08/16 15:32:47;;;;;;;9.07;3.58;;;33.90;29.20;;;;;;5991579;29;20056;-74
2022/08/16 15:35:51;;;;;;;4.30;3.28;;;34.00;29.20;;;;;;6007824;29;20848;-74
2022/08/16 15:38:53;;;;;;;4.80;3.22;;;34.10;29.60;;;;;;5991918;29;20113;-74
2022/08/16 15:41:59;;;;;;;7.47;3.50;;;34.00;29.20;;;;;;5993460;29;20045;-74
2022/08/16 15:45:04;;;;;;;6.32;2.70;;;33.80;29.30;;;;;;6008166;29;20391;-79
2022/08/16 15:48:08;;;;;;;4.05;2.95;;;34.60;28.70;;;;;;6007052;29;20125;-78
2022/08/16 15:51:09;;;;;;;5.50;2.60;;;35.80;27.50;;;;;;6006738;29;20533;-78
2022/08/16 15:54:12;;;;;;;3.95;2.78;;;37.00;26.40;;;;;;5984945;29;20034;-79